sensor_id;sensor_type;location;lat;lon;timestamp;P1;durP1;ratioP1;P2;durP2;ratioP2
79412;SDS011;68863;49.528;11.010;2024-01-07T00:00:09;8.98;;;4.68;;
79412;SDS011;68863;49.528;11.010;2024-01-07T00:01:10;8.30;;;3.78;;
79412;SDS011;68863;49.528;11.010;2024-01-07T00:02:10;9.98;;;3.97;;
79412;SDS011;68863;49.528;11.010;2024-01-07T00:03:10;10.18;;;3.95;;
79412;SDS011;68863;49.528;11.010;2024-01-07T00:04:11;10.15;;;3.65;;
79412;SDS011;68863;49.528;11.010;2024-01-07T00:05:11;9.98;;;3.88;;
79412;SDS011;68863;49.528;11.010;2024-01-07T00:06:11;9.90;;;4.15;;
79412;SDS011;68863;49.528;11.010;2024-01-07T00:07:12;9.07;;;3.95;;
79412;SDS011;68863;49.528;11.010;2024-01-07T00:08:12;9.55;;;4.43;;
79412;SDS011;68863;49.528;11.010;2024-01-07T00:09:13;8.00;;;4.20;;
79412;SDS011;68863;49.528;11.010;2024-01-07T00:10:13;9.27;;;4.00;;
79412;SDS011;68863;49.528;11.010;2024-01-07T00:11:13;10.23;;;3.83;;
79412;SDS011;68863;49.528;11.010;2024-01-07T00:12:14;9.20;;;4.38;;
79412;SDS011;68863;49.528;11.010;2024-01-07T00:13:15;9.20;;;3.92;;
79412;SDS011;68863;49.528;11.010;2024-01-07T00:14:15;7.93;;;3.17;;
79412;SDS011;68863;49.528;11.010;2024-01-07T00:15:17;8.35;;;4.53;;
79412;SDS011;68863;49.528;11.010;2024-01-07T00:16:17;9.13;;;3.63;;
79412;SDS011;68863;49.528;11.010;2024-01-07T00:17:17;9.30;;;3.50;;
79412;SDS011;68863;49.528;11.010;2024-01-07T00:18:18;10.00;;;3.95;;
79412;SDS011;68863;49.528;11.010;2024-01-07T00:19:18;8.73;;;3.50;;
79412;SDS011;68863;49.528;11.010;2024-01-07T00:20:18;7.55;;;3.97;;
79412;SDS011;68863;49.528;11.010;2024-01-07T00:21:19;8.77;;;3.55;;
79412;SDS011;68863;49.528;11.010;2024-01-07T00:22:20;8.43;;;3.25;;
79412;SDS011;68863;49.528;11.010;2024-01-07T00:23:20;10.15;;;4.57;;
79412;SDS011;68863;49.528;11.010;2024-01-07T00:24:21;7.82;;;3.75;;
79412;SDS011;68863;49.528;11.010;2024-01-07T00:25:21;8.88;;;4.13;;
79412;SDS011;68863;49.528;11.010;2024-01-07T00:26:21;11.45;;;3.90;;
79412;SDS011;68863;49.528;11.010;2024-01-07T00:27:22;9.80;;;4.03;;
79412;SDS011;68863;49.528;11.010;2024-01-07T00:28:22;8.93;;;4.18;;
79412;SDS011;68863;49.528;11.010;2024-01-07T00:29:22;8.90;;;3.85;;
79412;SDS011;68863;49.528;11.010;2024-01-07T00:30:23;10.60;;;4.03;;
79412;SDS011;68863;49.528;11.010;2024-01-07T00:31:23;10.40;;;4.00;;
79412;SDS011;68863;49.528;11.010;2024-01-07T00:32:24;9.93;;;3.75;;
79412;SDS011;68863;49.528;11.010;2024-01-07T00:33:24;9.68;;;4.00;;
79412;SDS011;68863;49.528;11.010;2024-01-07T00:34:24;8.75;;;4.03;;
79412;SDS011;68863;49.528;11.010;2024-01-07T00:35:25;8.68;;;3.28;;
79412;SDS011;68863;49.528;11.010;2024-01-07T00:36:25;8.32;;;3.85;;
79412;SDS011;68863;49.528;11.010;2024-01-07T00:37:25;8.88;;;3.88;;
79412;SDS011;68863;49.528;11.010;2024-01-07T00:38:26;10.30;;;4.20;;
79412;SDS011;68863;49.528;11.010;2024-01-07T00:39:26;9.35;;;3.13;;
79412;SDS011;68863;49.528;11.010;2024-01-07T00:40:27;9.35;;;3.20;;
79412;SDS011;68863;49.528;11.010;2024-01-07T00:41:27;9.50;;;3.80;;
79412;SDS011;68863;49.528;11.010;2024-01-07T00:42:27;8.48;;;3.63;;
79412;SDS011;68863;49.528;11.010;2024-01-07T00:43:28;7.88;;;3.00;;
79412;SDS011;68863;49.528;11.010;2024-01-07T00:44:28;9.43;;;4.22;;
79412;SDS011;68863;49.528;11.010;2024-01-07T00:45:28;9.52;;;3.90;;
79412;SDS011;68863;49.528;11.010;2024-01-07T00:46:29;9.10;;;4.40;;
79412;SDS011;68863;49.528;11.010;2024-01-07T00:47:29;10.27;;;3.97;;
79412;SDS011;68863;49.528;11.010;2024-01-07T00:48:29;8.75;;;3.47;;
79412;SDS011;68863;49.528;11.010;2024-01-07T00:49:30;9.32;;;3.58;;
79412;SDS011;68863;49.528;11.010;2024-01-07T00:50:31;10.68;;;3.85;;
79412;SDS011;68863;49.528;11.010;2024-01-07T00:51:31;8.10;;;3.90;;
79412;SDS011;68863;49.528;11.010;2024-01-07T00:52:31;7.97;;;3.78;;
79412;SDS011;68863;49.528;11.010;2024-01-07T00:53:32;10.10;;;3.35;;
79412;SDS011;68863;49.528;11.010;2024-01-07T00:54:32;9.00;;;3.55;;
79412;SDS011;68863;49.528;11.010;2024-01-07T00:55:32;7.93;;;3.75;;
79412;SDS011;68863;49.528;11.010;2024-01-07T00:56:33;9.43;;;3.55;;
79412;SDS011;68863;49.528;11.010;2024-01-07T00:57:33;11.95;;;4.53;;
79412;SDS011;68863;49.528;11.010;2024-01-07T00:58:34;9.93;;;3.63;;
79412;SDS011;68863;49.528;11.010;2024-01-07T01:00:36;7.67;;;3.13;;
79412;SDS011;68863;49.528;11.010;2024-01-07T01:01:37;9.70;;;3.88;;
79412;SDS011;68863;49.528;11.010;2024-01-07T01:02:37;9.55;;;3.67;;
79412;SDS011;68863;49.528;11.010;2024-01-07T01:03:37;8.52;;;3.35;;
79412;SDS011;68863;49.528;11.010;2024-01-07T01:04:38;11.48;;;3.60;;
79412;SDS011;68863;49.528;11.010;2024-01-07T01:05:40;10.63;;;4.10;;
79412;SDS011;68863;49.528;11.010;2024-01-07T01:06:40;10.68;;;3.80;;
79412;SDS011;68863;49.528;11.010;2024-01-07T01:07:40;7.63;;;3.45;;
79412;SDS011;68863;49.528;11.010;2024-01-07T01:08:41;8.90;;;4.20;;
79412;SDS011;68863;49.528;11.010;2024-01-07T01:09:41;9.98;;;3.97;;
79412;SDS011;68863;49.528;11.010;2024-01-07T01:10:41;8.23;;;3.72;;
79412;SDS011;68863;49.528;11.010;2024-01-07T01:11:42;8.85;;;4.35;;
79412;SDS011;68863;49.528;11.010;2024-01-07T01:12:42;7.68;;;3.33;;
79412;SDS011;68863;49.528;11.010;2024-01-07T01:13:43;7.72;;;3.28;;
79412;SDS011;68863;49.528;11.010;2024-01-07T01:14:43;7.63;;;3.47;;
79412;SDS011;68863;49.528;11.010;2024-01-07T01:15:44;9.23;;;3.20;;
79412;SDS011;68863;49.528;11.010;2024-01-07T01:16:44;9.73;;;3.88;;
79412;SDS011;68863;49.528;11.010;2024-01-07T01:17:45;10.52;;;4.18;;
79412;SDS011;68863;49.528;11.010;2024-01-07T01:18:45;11.15;;;3.90;;
79412;SDS011;68863;49.528;11.010;2024-01-07T01:19:45;8.18;;;3.78;;
79412;SDS011;68863;49.528;11.010;2024-01-07T01:20:46;8.02;;;3.15;;
79412;SDS011;68863;49.528;11.010;2024-01-07T01:21:46;8.52;;;3.67;;
79412;SDS011;68863;49.528;11.010;2024-01-07T01:22:46;8.60;;;3.10;;
79412;SDS011;68863;49.528;11.010;2024-01-07T01:23:47;7.85;;;3.63;;
79412;SDS011;68863;49.528;11.010;2024-01-07T01:24:47;10.65;;;3.75;;
79412;SDS011;68863;49.528;11.010;2024-01-07T01:25:49;8.93;;;3.13;;
79412;SDS011;68863;49.528;11.010;2024-01-07T01:26:49;9.40;;;4.07;;
79412;SDS011;68863;49.528;11.010;2024-01-07T01:27:49;8.23;;;3.72;;
79412;SDS011;68863;49.528;11.010;2024-01-07T01:28:50;8.98;;;3.00;;
79412;SDS011;68863;49.528;11.010;2024-01-07T01:29:50;9.60;;;3.50;;
79412;SDS011;68863;49.528;11.010;2024-01-07T01:30:51;7.47;;;3.25;;
79412;SDS011;68863;49.528;11.010;2024-01-07T01:31:51;8.55;;;4.28;;
79412;SDS011;68863;49.528;11.010;2024-01-07T01:32:51;8.20;;;3.72;;
79412;SDS011;68863;49.528;11.010;2024-01-07T01:33:52;8.50;;;3.45;;
79412;SDS011;68863;49.528;11.010;2024-01-07T01:34:52;9.93;;;3.78;;
79412;SDS011;68863;49.528;11.010;2024-01-07T01:35:52;8.88;;;3.45;;
79412;SDS011;68863;49.528;11.010;2024-01-07T01:36:53;9.07;;;3.10;;
79412;SDS011;68863;49.528;11.010;2024-01-07T01:37:54;10.02;;;3.55;;
79412;SDS011;68863;49.528;11.010;2024-01-07T01:38:57;7.63;;;3.17;;
79412;SDS011;68863;49.528;11.010;2024-01-07T01:39:58;7.78;;;3.35;;
79412;SDS011;68863;49.528;11.010;2024-01-07T01:40:59;7.28;;;3.30;;
79412;SDS011;68863;49.528;11.010;2024-01-07T01:41:59;9.25;;;3.30;;
79412;SDS011;68863;49.528;11.010;2024-01-07T01:42:59;8.80;;;3.85;;
79412;SDS011;68863;49.528;11.010;2024-01-07T01:44:00;8.35;;;3.42;;
79412;SDS011;68863;49.528;11.010;2024-01-07T01:45:01;13.63;;;3.63;;
79412;SDS011;68863;49.528;11.010;2024-01-07T01:46:02;8.15;;;3.47;;
79412;SDS011;68863;49.528;11.010;2024-01-07T01:47:03;9.55;;;3.95;;
79412;SDS011;68863;49.528;11.010;2024-01-07T01:48:05;10.05;;;4.00;;
79412;SDS011;68863;49.528;11.010;2024-01-07T01:49:06;8.38;;;3.22;;
79412;SDS011;68863;49.528;11.010;2024-01-07T01:50:08;8.32;;;3.72;;
79412;SDS011;68863;49.528;11.010;2024-01-07T01:51:08;9.27;;;4.05;;
79412;SDS011;68863;49.528;11.010;2024-01-07T01:52:09;7.88;;;3.58;;
79412;SDS011;68863;49.528;11.010;2024-01-07T01:53:11;8.73;;;3.47;;
79412;SDS011;68863;49.528;11.010;2024-01-07T01:54:11;9.35;;;3.67;;
79412;SDS011;68863;49.528;11.010;2024-01-07T01:55:12;7.60;;;3.47;;
79412;SDS011;68863;49.528;11.010;2024-01-07T01:56:13;9.82;;;4.20;;
79412;SDS011;68863;49.528;11.010;2024-01-07T01:57:16;8.07;;;3.50;;
79412;SDS011;68863;49.528;11.010;2024-01-07T01:58:22;10.25;;;3.65;;
79412;SDS011;68863;49.528;11.010;2024-01-07T01:59:23;7.70;;;2.78;;
79412;SDS011;68863;49.528;11.010;2024-01-07T02:00:25;12.07;;;4.13;;
79412;SDS011;68863;49.528;11.010;2024-01-07T02:01:26;7.35;;;3.30;;
79412;SDS011;68863;49.528;11.010;2024-01-07T02:02:27;7.10;;;3.00;;
79412;SDS011;68863;49.528;11.010;2024-01-07T02:03:29;7.97;;;3.28;;
79412;SDS011;68863;49.528;11.010;2024-01-07T02:04:29;8.65;;;3.53;;
79412;SDS011;68863;49.528;11.010;2024-01-07T02:05:29;8.02;;;2.85;;
79412;SDS011;68863;49.528;11.010;2024-01-07T02:06:30;8.52;;;2.70;;
79412;SDS011;68863;49.528;11.010;2024-01-07T02:07:30;7.22;;;2.97;;
79412;SDS011;68863;49.528;11.010;2024-01-07T02:08:31;6.38;;;3.15;;
79412;SDS011;68863;49.528;11.010;2024-01-07T02:09:32;8.25;;;3.08;;
79412;SDS011;68863;49.528;11.010;2024-01-07T02:10:32;7.38;;;2.95;;
79412;SDS011;68863;49.528;11.010;2024-01-07T02:11:36;6.70;;;2.60;;
79412;SDS011;68863;49.528;11.010;2024-01-07T02:12:36;6.90;;;3.55;;
79412;SDS011;68863;49.528;11.010;2024-01-07T02:13:37;7.60;;;2.60;;
79412;SDS011;68863;49.528;11.010;2024-01-07T02:14:38;6.97;;;2.72;;
79412;SDS011;68863;49.528;11.010;2024-01-07T02:15:39;7.05;;;2.88;;
79412;SDS011;68863;49.528;11.010;2024-01-07T02:16:39;7.13;;;2.63;;
79412;SDS011;68863;49.528;11.010;2024-01-07T02:17:40;5.65;;;2.47;;
79412;SDS011;68863;49.528;11.010;2024-01-07T02:18:41;6.82;;;2.63;;
79412;SDS011;68863;49.528;11.010;2024-01-07T02:19:42;7.20;;;2.65;;
79412;SDS011;68863;49.528;11.010;2024-01-07T02:20:42;7.70;;;2.70;;
79412;SDS011;68863;49.528;11.010;2024-01-07T02:21:43;8.20;;;2.90;;
79412;SDS011;68863;49.528;11.010;2024-01-07T02:22:43;8.30;;;3.40;;
79412;SDS011;68863;49.528;11.010;2024-01-07T02:23:43;8.15;;;3.35;;
79412;SDS011;68863;49.528;11.010;2024-01-07T02:24:44;7.45;;;3.15;;
79412;SDS011;68863;49.528;11.010;2024-01-07T02:25:44;6.47;;;2.80;;
79412;SDS011;68863;49.528;11.010;2024-01-07T02:26:44;8.13;;;2.45;;
79412;SDS011;68863;49.528;11.010;2024-01-07T02:27:45;7.15;;;2.78;;
79412;SDS011;68863;49.528;11.010;2024-01-07T02:28:45;8.05;;;3.10;;
79412;SDS011;68863;49.528;11.010;2024-01-07T02:29:46;7.30;;;2.90;;
79412;SDS011;68863;49.528;11.010;2024-01-07T02:30:46;7.72;;;2.72;;
79412;SDS011;68863;49.528;11.010;2024-01-07T02:31:46;6.95;;;2.30;;
79412;SDS011;68863;49.528;11.010;2024-01-07T02:32:47;7.20;;;3.00;;
79412;SDS011;68863;49.528;11.010;2024-01-07T02:33:47;6.05;;;2.78;;
79412;SDS011;68863;49.528;11.010;2024-01-07T02:34:48;6.28;;;2.22;;
79412;SDS011;68863;49.528;11.010;2024-01-07T02:35:48;8.57;;;3.08;;
79412;SDS011;68863;49.528;11.010;2024-01-07T02:36:49;7.13;;;2.50;;
79412;SDS011;68863;49.528;11.010;2024-01-07T02:37:49;7.47;;;3.35;;
79412;SDS011;68863;49.528;11.010;2024-01-07T02:38:49;5.90;;;2.47;;
79412;SDS011;68863;49.528;11.010;2024-01-07T02:39:50;8.82;;;3.53;;
79412;SDS011;68863;49.528;11.010;2024-01-07T02:40:50;8.55;;;2.97;;
79412;SDS011;68863;49.528;11.010;2024-01-07T02:41:50;6.32;;;2.83;;
79412;SDS011;68863;49.528;11.010;2024-01-07T02:42:51;7.32;;;2.72;;
79412;SDS011;68863;49.528;11.010;2024-01-07T02:43:51;7.25;;;3.20;;
79412;SDS011;68863;49.528;11.010;2024-01-07T02:44:52;6.57;;;2.47;;
79412;SDS011;68863;49.528;11.010;2024-01-07T02:45:52;7.22;;;2.58;;
79412;SDS011;68863;49.528;11.010;2024-01-07T02:46:53;7.38;;;2.78;;
79412;SDS011;68863;49.528;11.010;2024-01-07T02:47:53;7.35;;;2.30;;
79412;SDS011;68863;49.528;11.010;2024-01-07T02:48:53;8.05;;;2.53;;
79412;SDS011;68863;49.528;11.010;2024-01-07T02:49:54;6.95;;;2.65;;
79412;SDS011;68863;49.528;11.010;2024-01-07T02:50:55;7.50;;;2.25;;
79412;SDS011;68863;49.528;11.010;2024-01-07T02:51:56;8.82;;;2.55;;
79412;SDS011;68863;49.528;11.010;2024-01-07T02:52:56;7.68;;;2.88;;
79412;SDS011;68863;49.528;11.010;2024-01-07T02:53:56;7.82;;;2.95;;
79412;SDS011;68863;49.528;11.010;2024-01-07T02:54:57;6.68;;;2.70;;
79412;SDS011;68863;49.528;11.010;2024-01-07T02:55:59;7.03;;;3.00;;
79412;SDS011;68863;49.528;11.010;2024-01-07T02:56:59;8.00;;;3.03;;
79412;SDS011;68863;49.528;11.010;2024-01-07T02:58:00;7.35;;;2.92;;
79412;SDS011;68863;49.528;11.010;2024-01-07T02:59:00;6.68;;;2.33;;
79412;SDS011;68863;49.528;11.010;2024-01-07T03:00:00;7.15;;;3.03;;
79412;SDS011;68863;49.528;11.010;2024-01-07T03:01:02;7.22;;;3.05;;
79412;SDS011;68863;49.528;11.010;2024-01-07T03:02:08;6.85;;;2.85;;
79412;SDS011;68863;49.528;11.010;2024-01-07T03:03:08;9.35;;;2.75;;
79412;SDS011;68863;49.528;11.010;2024-01-07T03:04:10;8.15;;;2.80;;
79412;SDS011;68863;49.528;11.010;2024-01-07T03:05:11;7.38;;;2.88;;
79412;SDS011;68863;49.528;11.010;2024-01-07T03:06:11;6.95;;;2.85;;
79412;SDS011;68863;49.528;11.010;2024-01-07T03:07:12;8.68;;;3.30;;
79412;SDS011;68863;49.528;11.010;2024-01-07T03:08:12;6.72;;;2.40;;
79412;SDS011;68863;49.528;11.010;2024-01-07T03:09:13;7.78;;;2.55;;
79412;SDS011;68863;49.528;11.010;2024-01-07T03:10:13;9.48;;;2.88;;
79412;SDS011;68863;49.528;11.010;2024-01-07T03:11:13;6.90;;;2.65;;
79412;SDS011;68863;49.528;11.010;2024-01-07T03:12:14;7.35;;;2.60;;
79412;SDS011;68863;49.528;11.010;2024-01-07T03:13:15;9.23;;;2.80;;
79412;SDS011;68863;49.528;11.010;2024-01-07T03:14:16;7.20;;;2.67;;
79412;SDS011;68863;49.528;11.010;2024-01-07T03:15:20;7.15;;;2.80;;
79412;SDS011;68863;49.528;11.010;2024-01-07T03:16:21;6.88;;;2.45;;
79412;SDS011;68863;49.528;11.010;2024-01-07T03:17:25;6.78;;;2.50;;
79412;SDS011;68863;49.528;11.010;2024-01-07T03:18:26;6.72;;;2.45;;
79412;SDS011;68863;49.528;11.010;2024-01-07T03:19:27;7.35;;;2.42;;
79412;SDS011;68863;49.528;11.010;2024-01-07T03:20:27;6.88;;;2.40;;
79412;SDS011;68863;49.528;11.010;2024-01-07T03:21:28;7.80;;;2.67;;
79412;SDS011;68863;49.528;11.010;2024-01-07T03:22:28;8.27;;;3.20;;
79412;SDS011;68863;49.528;11.010;2024-01-07T03:23:29;8.45;;;2.42;;
79412;SDS011;68863;49.528;11.010;2024-01-07T03:24:29;6.22;;;2.38;;
79412;SDS011;68863;49.528;11.010;2024-01-07T03:25:29;6.75;;;2.33;;
79412;SDS011;68863;49.528;11.010;2024-01-07T03:26:30;7.30;;;2.33;;
79412;SDS011;68863;49.528;11.010;2024-01-07T03:27:33;6.60;;;2.33;;
79412;SDS011;68863;49.528;11.010;2024-01-07T03:28:33;6.13;;;2.17;;
79412;SDS011;68863;49.528;11.010;2024-01-07T03:29:34;7.47;;;2.53;;
79412;SDS011;68863;49.528;11.010;2024-01-07T03:30:36;6.65;;;2.35;;
79412;SDS011;68863;49.528;11.010;2024-01-07T03:31:36;8.00;;;2.53;;
79412;SDS011;68863;49.528;11.010;2024-01-07T03:32:37;7.72;;;2.75;;
79412;SDS011;68863;49.528;11.010;2024-01-07T03:33:37;6.78;;;2.47;;
79412;SDS011;68863;49.528;11.010;2024-01-07T03:34:38;6.68;;;2.53;;
79412;SDS011;68863;49.528;11.010;2024-01-07T03:35:40;6.38;;;2.30;;
79412;SDS011;68863;49.528;11.010;2024-01-07T03:36:40;6.95;;;2.58;;
79412;SDS011;68863;49.528;11.010;2024-01-07T03:37:41;8.63;;;2.53;;
79412;SDS011;68863;49.528;11.010;2024-01-07T03:38:41;6.60;;;2.83;;
79412;SDS011;68863;49.528;11.010;2024-01-07T03:39:42;5.03;;;1.83;;
79412;SDS011;68863;49.528;11.010;2024-01-07T03:40:42;7.15;;;1.90;;
79412;SDS011;68863;49.528;11.010;2024-01-07T03:41:42;7.60;;;2.35;;
79412;SDS011;68863;49.528;11.010;2024-01-07T03:42:43;6.80;;;1.92;;
79412;SDS011;68863;49.528;11.010;2024-01-07T03:43:43;7.10;;;2.17;;
79412;SDS011;68863;49.528;11.010;2024-01-07T03:44:44;8.20;;;2.65;;
79412;SDS011;68863;49.528;11.010;2024-01-07T03:45:44;6.78;;;2.10;;
79412;SDS011;68863;49.528;11.010;2024-01-07T03:46:45;7.10;;;1.88;;
79412;SDS011;68863;49.528;11.010;2024-01-07T03:47:45;6.65;;;2.25;;
79412;SDS011;68863;49.528;11.010;2024-01-07T03:48:45;7.82;;;1.95;;
79412;SDS011;68863;49.528;11.010;2024-01-07T03:49:46;6.63;;;2.25;;
79412;SDS011;68863;49.528;11.010;2024-01-07T03:50:46;6.05;;;1.83;;
79412;SDS011;68863;49.528;11.010;2024-01-07T03:51:47;7.40;;;2.17;;
79412;SDS011;68863;49.528;11.010;2024-01-07T03:52:47;7.47;;;2.28;;
79412;SDS011;68863;49.528;11.010;2024-01-07T03:53:47;6.15;;;2.22;;
79412;SDS011;68863;49.528;11.010;2024-01-07T03:54:48;6.38;;;2.53;;
79412;SDS011;68863;49.528;11.010;2024-01-07T03:55:48;6.53;;;2.50;;
79412;SDS011;68863;49.528;11.010;2024-01-07T03:56:48;6.85;;;2.17;;
79412;SDS011;68863;49.528;11.010;2024-01-07T03:57:49;6.32;;;2.45;;
79412;SDS011;68863;49.528;11.010;2024-01-07T03:58:49;6.07;;;2.03;;
79412;SDS011;68863;49.528;11.010;2024-01-07T03:59:50;5.57;;;1.80;;
79412;SDS011;68863;49.528;11.010;2024-01-07T04:00:50;6.45;;;2.08;;
79412;SDS011;68863;49.528;11.010;2024-01-07T04:01:52;5.28;;;2.00;;
79412;SDS011;68863;49.528;11.010;2024-01-07T04:02:53;7.50;;;1.98;;
79412;SDS011;68863;49.528;11.010;2024-01-07T04:03:54;7.40;;;2.22;;
79412;SDS011;68863;49.528;11.010;2024-01-07T04:04:54;6.53;;;2.50;;
79412;SDS011;68863;49.528;11.010;2024-01-07T04:05:55;5.80;;;2.20;;
79412;SDS011;68863;49.528;11.010;2024-01-07T04:06:55;6.00;;;1.85;;
79412;SDS011;68863;49.528;11.010;2024-01-07T04:07:56;6.35;;;2.50;;
79412;SDS011;68863;49.528;11.010;2024-01-07T04:08:56;6.93;;;2.30;;
79412;SDS011;68863;49.528;11.010;2024-01-07T04:09:57;7.53;;;2.45;;
79412;SDS011;68863;49.528;11.010;2024-01-07T04:10:57;8.02;;;2.42;;
79412;SDS011;68863;49.528;11.010;2024-01-07T04:11:57;8.10;;;2.67;;
79412;SDS011;68863;49.528;11.010;2024-01-07T04:12:58;5.85;;;2.00;;
79412;SDS011;68863;49.528;11.010;2024-01-07T04:13:58;6.10;;;2.10;;
79412;SDS011;68863;49.528;11.010;2024-01-07T04:14:59;6.55;;;2.20;;
79412;SDS011;68863;49.528;11.010;2024-01-07T04:15:59;5.53;;;1.90;;
79412;SDS011;68863;49.528;11.010;2024-01-07T04:16:59;7.20;;;1.98;;
79412;SDS011;68863;49.528;11.010;2024-01-07T04:18:03;6.40;;;2.38;;
79412;SDS011;68863;49.528;11.010;2024-01-07T04:19:04;5.95;;;2.10;;
79412;SDS011;68863;49.528;11.010;2024-01-07T04:20:05;7.20;;;2.28;;
79412;SDS011;68863;49.528;11.010;2024-01-07T04:21:09;6.65;;;1.98;;
79412;SDS011;68863;49.528;11.010;2024-01-07T04:22:09;6.45;;;1.90;;
79412;SDS011;68863;49.528;11.010;2024-01-07T04:23:10;6.25;;;2.45;;
79412;SDS011;68863;49.528;11.010;2024-01-07T04:24:10;7.35;;;2.10;;
79412;SDS011;68863;49.528;11.010;2024-01-07T04:25:10;8.73;;;2.90;;
79412;SDS011;68863;49.528;11.010;2024-01-07T04:26:11;8.02;;;2.42;;
79412;SDS011;68863;49.528;11.010;2024-01-07T04:27:11;6.57;;;2.45;;
79412;SDS011;68863;49.528;11.010;2024-01-07T04:28:12;8.98;;;2.90;;
79412;SDS011;68863;49.528;11.010;2024-01-07T04:29:12;6.78;;;2.38;;
79412;SDS011;68863;49.528;11.010;2024-01-07T04:30:12;7.20;;;2.80;;
79412;SDS011;68863;49.528;11.010;2024-01-07T04:31:13;6.55;;;2.00;;
79412;SDS011;68863;49.528;11.010;2024-01-07T04:32:13;6.90;;;2.42;;
79412;SDS011;68863;49.528;11.010;2024-01-07T04:33:14;7.28;;;2.45;;
79412;SDS011;68863;49.528;11.010;2024-01-07T04:34:14;6.75;;;2.67;;
79412;SDS011;68863;49.528;11.010;2024-01-07T04:35:14;8.77;;;2.88;;
79412;SDS011;68863;49.528;11.010;2024-01-07T04:36:15;5.68;;;2.55;;
79412;SDS011;68863;49.528;11.010;2024-01-07T04:37:15;7.13;;;2.65;;
79412;SDS011;68863;49.528;11.010;2024-01-07T04:38:15;8.15;;;2.55;;
79412;SDS011;68863;49.528;11.010;2024-01-07T04:39:16;8.02;;;2.17;;
79412;SDS011;68863;49.528;11.010;2024-01-07T04:40:16;7.45;;;2.15;;
79412;SDS011;68863;49.528;11.010;2024-01-07T04:41:16;6.78;;;2.60;;
79412;SDS011;68863;49.528;11.010;2024-01-07T04:42:17;6.82;;;2.47;;
79412;SDS011;68863;49.528;11.010;2024-01-07T04:43:18;7.78;;;2.80;;
79412;SDS011;68863;49.528;11.010;2024-01-07T04:44:19;7.07;;;2.28;;
79412;SDS011;68863;49.528;11.010;2024-01-07T04:45:19;5.90;;;2.20;;
79412;SDS011;68863;49.528;11.010;2024-01-07T04:46:20;7.20;;;2.30;;
79412;SDS011;68863;49.528;11.010;2024-01-07T04:47:38;8.18;;;1.88;;
79412;SDS011;68863;49.528;11.010;2024-01-07T04:48:38;5.13;;;1.45;;
79412;SDS011;68863;49.528;11.010;2024-01-07T04:49:39;7.20;;;2.08;;
79412;SDS011;68863;49.528;11.010;2024-01-07T04:50:40;5.25;;;1.63;;
79412;SDS011;68863;49.528;11.010;2024-01-07T04:51:43;5.82;;;1.65;;
79412;SDS011;68863;49.528;11.010;2024-01-07T04:52:44;5.43;;;1.52;;
79412;SDS011;68863;49.528;11.010;2024-01-07T04:53:44;6.70;;;2.03;;
79412;SDS011;68863;49.528;11.010;2024-01-07T04:54:44;6.63;;;1.65;;
79412;SDS011;68863;49.528;11.010;2024-01-07T04:55:45;4.82;;;1.65;;
79412;SDS011;68863;49.528;11.010;2024-01-07T04:56:45;5.18;;;1.52;;
79412;SDS011;68863;49.528;11.010;2024-01-07T04:57:46;6.10;;;1.55;;
79412;SDS011;68863;49.528;11.010;2024-01-07T04:58:46;4.82;;;1.35;;
79412;SDS011;68863;49.528;11.010;2024-01-07T04:59:47;5.97;;;1.90;;
79412;SDS011;68863;49.528;11.010;2024-01-07T05:00:48;4.90;;;1.60;;
79412;SDS011;68863;49.528;11.010;2024-01-07T05:01:48;5.57;;;1.75;;
79412;SDS011;68863;49.528;11.010;2024-01-07T05:02:49;5.20;;;1.55;;
79412;SDS011;68863;49.528;11.010;2024-01-07T05:03:49;5.50;;;1.25;;
79412;SDS011;68863;49.528;11.010;2024-01-07T05:04:50;3.83;;;1.25;;
79412;SDS011;68863;49.528;11.010;2024-01-07T05:05:50;5.18;;;1.40;;
79412;SDS011;68863;49.528;11.010;2024-01-07T05:06:50;6.57;;;1.63;;
79412;SDS011;68863;49.528;11.010;2024-01-07T05:07:51;4.20;;;1.30;;
79412;SDS011;68863;49.528;11.010;2024-01-07T05:08:51;4.32;;;1.23;;
79412;SDS011;68863;49.528;11.010;2024-01-07T05:09:51;4.68;;;1.27;;
79412;SDS011;68863;49.528;11.010;2024-01-07T05:10:52;5.78;;;1.02;;
79412;SDS011;68863;49.528;11.010;2024-01-07T05:11:52;4.97;;;1.45;;
79412;SDS011;68863;49.528;11.010;2024-01-07T05:12:52;5.38;;;1.17;;
79412;SDS011;68863;49.528;11.010;2024-01-07T05:13:53;5.07;;;1.20;;
79412;SDS011;68863;49.528;11.010;2024-01-07T05:14:53;5.22;;;1.13;;
79412;SDS011;68863;49.528;11.010;2024-01-07T05:15:54;5.00;;;1.33;;
79412;SDS011;68863;49.528;11.010;2024-01-07T05:16:54;6.53;;;1.40;;
79412;SDS011;68863;49.528;11.010;2024-01-07T05:17:55;5.35;;;1.63;;
79412;SDS011;68863;49.528;11.010;2024-01-07T05:18:55;6.28;;;1.30;;
79412;SDS011;68863;49.528;11.010;2024-01-07T05:19:56;4.68;;;1.20;;
79412;SDS011;68863;49.528;11.010;2024-01-07T05:20:56;4.57;;;1.50;;
79412;SDS011;68863;49.528;11.010;2024-01-07T05:21:56;4.53;;;1.45;;
79412;SDS011;68863;49.528;11.010;2024-01-07T05:22:58;3.95;;;1.20;;
79412;SDS011;68863;49.528;11.010;2024-01-07T05:23:58;5.25;;;1.20;;
79412;SDS011;68863;49.528;11.010;2024-01-07T05:24:58;5.10;;;1.50;;
79412;SDS011;68863;49.528;11.010;2024-01-07T05:26:00;5.25;;;1.13;;
79412;SDS011;68863;49.528;11.010;2024-01-07T05:27:00;5.15;;;1.13;;
79412;SDS011;68863;49.528;11.010;2024-01-07T05:28:01;5.10;;;1.45;;
79412;SDS011;68863;49.528;11.010;2024-01-07T05:29:01;5.32;;;1.33;;
79412;SDS011;68863;49.528;11.010;2024-01-07T05:30:01;4.68;;;1.42;;
79412;SDS011;68863;49.528;11.010;2024-01-07T05:31:02;4.95;;;1.38;;
79412;SDS011;68863;49.528;11.010;2024-01-07T05:32:03;4.38;;;1.20;;
79412;SDS011;68863;49.528;11.010;2024-01-07T05:33:04;5.57;;;1.40;;
79412;SDS011;68863;49.528;11.010;2024-01-07T05:34:04;5.00;;;1.40;;
79412;SDS011;68863;49.528;11.010;2024-01-07T05:35:05;6.88;;;1.70;;
79412;SDS011;68863;49.528;11.010;2024-01-07T05:36:06;3.05;;;0.75;;
79412;SDS011;68863;49.528;11.010;2024-01-07T05:37:06;5.10;;;1.27;;
79412;SDS011;68863;49.528;11.010;2024-01-07T05:38:06;5.53;;;1.52;;
79412;SDS011;68863;49.528;11.010;2024-01-07T05:39:07;5.47;;;1.42;;
79412;SDS011;68863;49.528;11.010;2024-01-07T05:40:07;4.90;;;1.50;;
79412;SDS011;68863;49.528;11.010;2024-01-07T05:41:08;7.00;;;2.00;;
79412;SDS011;68863;49.528;11.010;2024-01-07T05:42:09;5.68;;;1.75;;
79412;SDS011;68863;49.528;11.010;2024-01-07T05:43:09;6.47;;;1.63;;
79412;SDS011;68863;49.528;11.010;2024-01-07T05:44:10;6.60;;;1.45;;
79412;SDS011;68863;49.528;11.010;2024-01-07T05:45:11;5.13;;;1.73;;
79412;SDS011;68863;49.528;11.010;2024-01-07T05:46:12;5.28;;;1.42;;
79412;SDS011;68863;49.528;11.010;2024-01-07T05:47:12;5.95;;;1.52;;
79412;SDS011;68863;49.528;11.010;2024-01-07T05:48:13;6.82;;;1.60;;
79412;SDS011;68863;49.528;11.010;2024-01-07T05:49:13;6.18;;;1.60;;
79412;SDS011;68863;49.528;11.010;2024-01-07T05:50:14;4.78;;;1.20;;
79412;SDS011;68863;49.528;11.010;2024-01-07T05:51:16;4.70;;;1.30;;
79412;SDS011;68863;49.528;11.010;2024-01-07T05:52:16;5.40;;;1.65;;
79412;SDS011;68863;49.528;11.010;2024-01-07T05:53:17;6.50;;;1.48;;
79412;SDS011;68863;49.528;11.010;2024-01-07T05:54:17;6.25;;;1.70;;
79412;SDS011;68863;49.528;11.010;2024-01-07T05:55:18;6.07;;;1.70;;
79412;SDS011;68863;49.528;11.010;2024-01-07T05:56:18;6.93;;;2.15;;
79412;SDS011;68863;49.528;11.010;2024-01-07T05:57:19;5.70;;;1.58;;
79412;SDS011;68863;49.528;11.010;2024-01-07T05:58:19;6.18;;;1.52;;
79412;SDS011;68863;49.528;11.010;2024-01-07T05:59:19;7.57;;;1.80;;
79412;SDS011;68863;49.528;11.010;2024-01-07T06:00:20;5.40;;;1.77;;